Boone, Nebraska
Current Conditions -  °F | °C
As of 5:35 PM on Saturday 22 Nov 2014 (Local Time) from KBVN Reporting Station
Clear Clear  
Wind Chill: 40°   Ceiling: Unl
Heat Index: 44°   Visibility: 10mi
Dew Point: 33°   Wind: 7mph
Humidity: 66%   Direction: 140°SE
Pressure: 29.55"   Gusts: NA
Location:  41.747°N, 98.0152°W
Report Text: KBVN 222335Z AUTO 14006KT 10SM CLR 07/01 A2955 RMK AO2 T00650005
Loading
Personal Weather Stations






























Interactive Weather Map New forecast layout! Learn more

10-Day Weather Forecast

Advertisements
Track Severe Weather on mobile